Time;durP1;ratioP1;P1;durP2;ratioP2;P2;SDS_P1;SDS_P2;PMS_P1;PMS_P2;Temp;Humidity;BMP_temperature;BMP_pressure;BME280_temperature;BME280_humidity;BME280_pressure;Samples;Min_cycle;Max_cycle;Signal;HPM_P1;HPM_P2
2022/12/10 00:01:42;;;;;;;1999.90;999.90;;;2.60;1.00;;;;;;5067913;28;20048;-79
2022/12/10 00:04:08;;;;;;;1999.90;999.90;;;4.50;99.90;;;;;;5072931;28;20102;-78
2022/12/10 00:06:36;;;;;;;1999.90;999.90;;;4.10;1.00;;;;;;5072733;28;20044;-78
2022/12/10 00:09:04;;;;;;;1999.90;999.90;;;3.90;99.90;;;;;;5063573;28;20087;-80
2022/12/10 00:11:30;;;;;;;1999.90;999.90;;;3.70;99.90;;;;;;5053858;28;20052;-78
2022/12/10 00:13:57;;;;;;;1999.90;999.90;;;4.00;1.00;;;;;;5054863;28;20044;-78
2022/12/10 00:16:25;;;;;;;1999.90;999.90;;;3.70;1.00;;;;;;5059570;28;20037;-78
2022/12/10 00:18:52;;;;;;;1999.90;999.90;;;4.00;99.90;;;;;;5068864;28;20052;-78
2022/12/10 00:21:21;;;;;;;1999.90;999.90;;;5.90;1.00;;;;;;5072934;28;20052;-79
2022/12/10 00:23:47;;;;;;;1999.90;999.90;;;4.30;99.90;;;;;;5071327;28;20056;-77
2022/12/10 00:26:21;;;;;;;1999.90;999.90;;;4.20;99.90;;;;;;5060462;28;20041;-78
2022/12/10 00:28:47;;;;;;;1999.90;999.90;;;3.80;99.90;;;;;;5069610;28;20564;-78
2022/12/10 00:31:19;;;;;;;1999.90;999.90;;;3.30;1.00;;;;;;5063317;28;20405;-77
2022/12/10 00:33:45;;;;;;;1999.90;999.90;;;3.60;99.90;;;;;;5057279;28;20052;-77
2022/12/10 00:36:20;;;;;;;1999.90;999.90;;;5.80;99.90;;;;;;5064986;28;20056;-77
2022/12/10 00:38:47;;;;;;;1999.90;999.90;;;4.60;65.70;;;;;;5062476;28;20123;-82
2022/12/10 00:41:13;;;;;;;1999.90;999.90;;;6.00;99.90;;;;;;5067480;28;20110;-77
2022/12/10 00:43:40;;;;;;;1999.90;999.90;;;4.10;99.90;;;;;;5061532;28;20294;-87
2022/12/10 00:46:06;;;;;;;1999.90;999.90;;;3.90;99.90;;;;;;5063460;28;20577;-77
2022/12/10 00:48:32;;;;;;;1999.90;999.90;;;;;;;;;;5068460;28;20075;-93
2022/12/10 00:51:13;;;;;;;1999.90;999.90;;;5.30;99.90;;;;;;5062949;28;20123;-77
2022/12/10 00:53:41;;;;;;;1999.90;999.90;;;2.90;99.90;;;;;;5069993;28;20044;-85
2022/12/10 00:56:08;;;;;;;1999.90;999.90;;;4.30;1.00;;;;;;5062210;28;20049;-77
2022/12/10 00:58:36;;;;;;;1999.90;999.90;;;3.70;99.90;;;;;;5077251;28;20224;-79
2022/12/10 01:01:21;;;;;;;1999.90;999.90;;;6.30;99.90;;;;;;5069593;28;20451;-79
2022/12/10 01:03:49;;;;;;;1999.90;999.90;;;2.70;99.90;;;;;;5067488;28;20048;-77
2022/12/10 01:06:21;;;;;;;1999.90;999.90;;;3.40;86.70;;;;;;5073930;28;20043;-77
2022/12/10 01:08:48;;;;;;;1999.90;999.90;;;4.40;1.00;;;;;;5063288;28;20167;-77
2022/12/10 01:11:15;;;;;;;1999.90;999.90;;;5.20;1.00;;;;;;5064411;28;20044;-77
2022/12/10 01:13:42;;;;;;;1999.90;999.90;;;3.50;1.00;;;;;;5073516;28;20102;-76
2022/12/10 01:16:14;;;;;;;1999.90;999.90;;;5.50;1.00;;;;;;5073783;28;20098;-77
2022/12/10 01:18:40;;;;;;;1999.90;999.90;;;2.40;1.00;;;;;;5068272;28;20124;-83
2022/12/10 01:21:09;;;;;;;1999.90;999.90;;;6.10;99.90;;;;;;5057401;28;20044;-80
2022/12/10 01:23:37;;;;;;;1999.90;999.90;;;3.40;70.30;;;;;;5073618;28;20057;-77
2022/12/10 01:26:04;;;;;;;;;;;5.20;54.30;;;;;;5072676;28;20082;-76
2022/12/10 01:28:32;;;;;;;1999.90;999.90;;;3.60;1.00;;;;;;5073316;28;19920;-80
2022/12/10 01:31:02;;;;;;;1999.90;999.90;;;2.60;1.00;;;;;;5052589;28;20049;-77
2022/12/10 01:33:29;;;;;;;1999.90;999.90;;;3.60;1.00;;;;;;5069113;28;20135;-77
2022/12/10 01:35:55;;;;;;;1999.90;999.90;;;3.30;1.00;;;;;;5068220;28;20063;-77
2022/12/10 01:38:20;;;;;;;1999.90;999.90;;;4.80;1.00;;;;;;5055539;28;20040;-77
2022/12/10 01:40:46;;;;;;;1999.90;999.90;;;6.80;99.90;;;;;;5067033;28;20091;-78
2022/12/10 01:43:14;;;;;;;1999.90;999.90;;;2.70;1.00;;;;;;5073821;28;20477;-79
2022/12/10 01:45:40;;;;;;;1999.90;999.90;;;4.60;1.00;;;;;;5072383;28;20040;-85
2022/12/10 01:48:06;;;;;;;1999.90;999.90;;;2.80;1.00;;;;;;5072631;28;20053;-78
2022/12/10 01:50:32;;;;;;;1999.90;999.90;;;3.00;99.90;;;;;;5049297;28;20127;-78
2022/12/10 01:52:57;;;;;;;1999.90;999.90;;;2.70;99.90;;;;;;5072636;28;20123;-79
2022/12/10 01:55:49;;;;;;;1999.90;999.90;;;4.70;99.90;;;;;;5063990;28;20040;-78
2022/12/10 01:58:18;;;;;;;1999.90;999.90;;;3.60;99.90;;;;;;5059412;28;20406;-82
2022/12/10 02:00:51;;;;;;;1999.90;999.90;;;3.80;99.90;;;;;;5063646;28;20075;-78
2022/12/10 02:03:46;;;;;;;1999.90;999.90;;;3.40;99.90;;;;;;5058711;28;20032;-78
2022/12/10 02:06:23;;;;;;;1999.90;999.90;;;2.50;99.90;;;;;;5032416;28;20048;-78
2022/12/10 02:09:12;;;;;;;1999.90;999.90;;;4.20;99.90;;;;;;5058570;28;20045;-78
2022/12/10 02:11:38;;;;;;;1999.90;999.90;;;;;;;;;;5067229;28;20106;-80
2022/12/10 02:14:38;;;;;;;1999.90;999.90;;;3.20;99.90;;;;;;5055543;28;20485;-78
2022/12/10 02:17:13;;;;;;;1999.90;999.90;;;3.10;99.90;;;;;;5071118;28;20068;-78
2022/12/10 02:19:51;;;;;;;1999.90;999.90;;;6.30;99.90;;;;;;5072198;28;20041;-80
2022/12/10 02:22:19;;;;;;;1999.90;999.90;;;3.60;99.90;;;;;;5042992;28;20080;-78
2022/12/10 02:24:48;;;;;;;1999.90;999.90;;;3.00;99.90;;;;;;5051888;28;20135;-78
2022/12/10 02:27:21;;;;;;;1999.90;999.90;;;4.20;92.00;;;;;;5052350;28;20127;-78
2022/12/10 02:29:49;;;;;;;1999.90;999.90;;;2.90;99.90;;;;;;5052027;28;20481;-78
2022/12/10 02:32:21;;;;;;;1999.90;999.90;;;3.40;1.00;;;;;;5054551;28;20049;-80
2022/12/10 02:34:53;;;;;;;1999.90;999.90;;;3.10;89.60;;;;;;5071802;28;20098;-83
2022/12/10 02:37:32;;;;;;;1999.90;999.90;;;3.40;1.00;;;;;;5052330;28;20071;-78
2022/12/10 02:40:01;;;;;;;1999.90;999.90;;;3.20;70.10;;;;;;5051102;28;20418;-77
2022/12/10 02:42:30;;;;;;;1999.90;999.90;;;1.50;1.00;;;;;;5051784;28;20099;-80
2022/12/10 02:44:57;;;;;;;1999.90;999.90;;;5.10;1.00;;;;;;5051562;28;20090;-78
2022/12/10 02:47:25;;;;;;;1999.90;999.90;;;3.80;1.00;;;;;;5050516;28;20132;-78
2022/12/10 02:49:54;;;;;;;1999.90;999.90;;;3.40;1.00;;;;;;5058919;28;20313;-81
2022/12/10 02:52:20;;;;;;;1999.90;999.90;;;3.20;1.00;;;;;;5056226;28;20044;-78
2022/12/10 02:54:49;;;;;;;1999.90;999.90;;;4.00;46.40;;;;;;5069986;28;20447;-79
2022/12/10 02:57:42;;;;;;;1999.90;999.90;;;4.50;1.00;;;;;;5073000;28;20050;-78
2022/12/10 03:00:16;;;;;;;1999.90;999.90;;;1.50;1.00;;;;;;5080958;28;20085;-90
2022/12/10 03:03:05;;;;;;;1999.90;999.90;;;3.30;1.00;;;;;;5050709;28;20460;-78
2022/12/10 03:05:41;;;;;;;1999.90;999.90;;;3.30;1.00;;;;;;5068704;28;20067;-78
2022/12/10 03:08:44;;;;;;;1999.90;999.90;;;3.20;1.00;;;;;;5083087;28;20388;-80
2022/12/10 03:11:13;;;;;;;1999.90;999.90;;;3.20;1.00;;;;;;5058076;28;20121;-78
2022/12/10 03:13:47;;;;;;;1999.90;999.90;;;1.70;1.00;;;;;;5069718;28;20182;-81
2022/12/10 03:16:14;;;;;;;1999.90;999.90;;;3.30;1.00;;;;;;5063812;28;20048;-78
2022/12/10 03:18:40;;;;;;;1999.90;999.90;;;5.20;1.00;;;;;;5051186;28;20338;-81
2022/12/10 03:21:08;;;;;;;1999.90;999.90;;;3.20;1.00;;;;;;5060605;28;20079;-78
2022/12/10 03:23:39;;;;;;;1999.90;999.90;;;4.50;1.00;;;;;;5052556;28;20045;-78
2022/12/10 03:26:05;;;;;;;1999.90;999.90;;;4.30;99.90;;;;;;5063474;28;20053;-78
2022/12/10 03:28:39;;;;;;;1999.90;999.90;;;3.60;99.90;;;;;;5070666;28;20051;-79
2022/12/10 03:31:08;;;;;;;1999.90;999.90;;;3.70;99.90;;;;;;5071401;28;20048;-78
2022/12/10 03:33:34;;;;;;;1999.90;999.90;;;2.20;1.00;;;;;;5071576;28;20048;-78
2022/12/10 03:36:00;;;;;;;1999.90;999.90;;;4.90;1.00;;;;;;5060923;28;20398;-78
2022/12/10 03:38:26;;;;;;;1999.90;999.90;;;4.30;1.00;;;;;;5069671;28;20390;-78
2022/12/10 03:40:52;;;;;;;1999.90;999.90;;;;;;;;;;5063486;28;20051;-78
2022/12/10 03:43:18;;;;;;;1999.90;999.90;;;3.00;99.90;;;;;;5082013;28;20080;-79
2022/12/10 03:45:43;;;;;;;1999.90;999.90;;;3.60;99.90;;;;;;5057679;28;20075;-78
2022/12/10 03:48:09;;;;;;;1999.90;999.90;;;5.30;99.90;;;;;;5068354;28;20520;-78
2022/12/10 03:50:34;;;;;;;1999.90;999.90;;;4.30;99.90;;;;;;5071244;28;20059;-78
2022/12/10 03:53:00;;;;;;;1999.90;999.90;;;1.00;99.90;;;;;;5071014;28;20048;-78
2022/12/10 03:55:26;;;;;;;1999.90;999.90;;;5.70;99.90;;;;;;5069614;28;20045;-78
2022/12/10 03:57:52;;;;;;;1999.90;999.90;;;;;;;;;;5064325;28;20047;-78
2022/12/10 04:00:18;;;;;;;1999.90;999.90;;;3.10;99.90;;;;;;5073186;28;20067;-79
2022/12/10 04:02:43;;;;;;;1999.90;999.90;;;3.00;99.90;;;;;;5065361;28;20045;-79
2022/12/10 04:05:09;;;;;;;1999.90;999.90;;;2.90;99.90;;;;;;5054275;28;20048;-81
2022/12/10 04:07:35;;;;;;;1999.90;999.90;;;2.90;99.90;;;;;;5053501;28;20045;-78
2022/12/10 04:10:02;;;;;;;1999.90;999.90;;;3.10;99.90;;;;;;5053167;28;20551;-78
2022/12/10 04:12:27;;;;;;;1999.90;999.90;;;3.80;99.90;;;;;;5068205;28;20048;-81
2022/12/10 04:17:37;;;;;;;1999.90;999.90;;;2.30;99.90;;;;;;5078477;28;20052;-80
2022/12/10 04:20:03;;;;;;;1999.90;999.90;;;2.30;99.90;;;;;;5061872;28;20048;-79
2022/12/10 04:27:58;;;;;;;1999.90;999.90;;;3.50;99.90;;;;;;5055487;28;20064;-78
2022/12/10 04:30:24;;;;;;;1999.90;999.90;;;2.90;99.90;;;;;;5063907;28;20040;-79
2022/12/10 04:32:50;;;;;;;1999.90;999.90;;;3.40;99.90;;;;;;5071396;28;20098;-79
2022/12/10 04:35:16;;;;;;;1999.90;999.90;;;1.70;99.90;;;;;;5060716;28;20049;-79
2022/12/10 04:37:41;;;;;;;1999.90;999.90;;;2.90;99.90;;;;;;5061284;28;20075;-79
2022/12/10 04:40:07;;;;;;;1999.90;999.90;;;2.70;99.90;;;;;;5068239;28;20094;-78
2022/12/10 04:42:33;;;;;;;1999.90;999.90;;;2.90;99.90;;;;;;5069764;28;20127;-87
2022/12/10 04:44:59;;;;;;;1999.90;999.90;;;4.30;99.90;;;;;;5066598;28;20102;-80
2022/12/10 04:47:24;;;;;;;1999.90;999.90;;;2.80;99.90;;;;;;5075224;28;20052;-80
2022/12/10 04:49:51;;;;;;;1999.90;999.90;;;5.30;99.90;;;;;;5065117;28;20402;-83
2022/12/10 04:52:17;;;;;;;1999.90;999.90;;;3.80;99.90;;;;;;5072544;28;20036;-81
2022/12/10 04:54:43;;;;;;;1999.90;999.90;;;2.80;99.90;;;;;;5078960;28;20041;-82
2022/12/10 04:57:09;;;;;;;1999.90;999.90;;;;;;;;;;5064591;28;20090;-83
2022/12/10 04:59:36;;;;;;;1999.90;999.90;;;1.40;86.80;;;;;;5057800;28;20051;-81
2022/12/10 05:02:02;;;;;;;1999.90;999.90;;;5.20;99.90;;;;;;5064168;28;20375;-80
2022/12/10 05:04:28;;;;;;;1999.90;999.90;;;;;;;;;;5060677;28;20119;-79
2022/12/10 05:06:54;;;;;;;1999.90;999.90;;;1.70;99.90;;;;;;5058941;28;20094;-80
2022/12/10 05:09:19;;;;;;;1999.90;999.90;;;2.60;99.90;;;;;;5064707;28;20049;-82
2022/12/10 05:11:45;;;;;;;1999.90;999.90;;;2.10;99.90;;;;;;5070254;28;20120;-79
2022/12/10 05:14:13;;;;;;;1999.90;999.90;;;1.60;99.90;;;;;;5064114;28;20071;-79
2022/12/10 05:16:39;;;;;;;;;;;4.90;54.60;;;;;;5060024;28;20083;-80
2022/12/10 05:19:04;;;;;;;1999.90;999.90;;;2.30;99.90;;;;;;5070091;28;19968;-79
2022/12/10 05:24:16;;;;;;;1999.90;999.90;;;1.90;1.00;;;;;;5076688;28;20056;-79
2022/12/10 05:26:42;;;;;;;1999.90;999.90;;;3.80;1.00;;;;;;5063759;28;20041;-79
2022/12/10 05:29:08;;;;;;;1999.90;999.90;;;2.40;43.10;;;;;;5069139;28;20048;-79
2022/12/10 05:31:34;;;;;;;1999.90;999.90;;;2.50;60.00;;;;;;5042638;28;20045;-77
2022/12/10 05:34:00;;;;;;;1999.90;999.90;;;;;;;;;;5064481;28;20043;-77
2022/12/10 05:36:29;;;;;;;1999.90;999.90;;;1.40;91.50;;;;;;5058910;28;20377;-77
2022/12/10 05:38:56;;;;;;;1999.90;999.90;;;2.80;83.00;;;;;;5070346;28;20468;-78
2022/12/10 05:41:24;;;;;;;1999.90;999.90;;;1.70;94.90;;;;;;5084363;28;20040;-77
2022/12/10 05:43:50;;;;;;;1999.90;999.90;;;2.80;99.00;;;;;;5058708;28;20052;-77
2022/12/10 05:46:19;;;;;;;1999.90;999.90;;;2.30;56.80;;;;;;5067784;28;20049;-77
2022/12/10 05:48:45;;;;;;;1999.90;999.90;;;3.90;22.30;;;;;;5052987;28;20505;-77
2022/12/10 05:51:13;;;;;;;1999.90;999.90;;;4.60;1.00;;;;;;5069438;28;20101;-77
2022/12/10 05:53:40;;;;;;;1999.90;999.90;;;4.00;1.00;;;;;;5072283;28;20175;-85
2022/12/10 05:56:11;;;;;;;1999.90;999.90;;;5.40;1.00;;;;;;5073030;28;20093;-78
2022/12/10 05:58:37;;;;;;;1999.90;999.90;;;2.30;1.00;;;;;;5069974;28;20473;-78
2022/12/10 06:01:09;;;;;;;1999.90;999.90;;;3.40;1.00;;;;;;5052123;28;20149;-78
2022/12/10 06:03:35;;;;;;;1999.90;999.90;;;5.00;99.90;;;;;;5061758;28;20067;-78
2022/12/10 06:06:01;;;;;;;1999.90;999.90;;;3.00;99.90;;;;;;5069835;28;20604;-78
2022/12/10 06:08:26;;;;;;;1999.90;999.90;;;4.40;99.90;;;;;;5082493;28;20119;-77
2022/12/10 06:10:53;;;;;;;1999.90;999.90;;;2.00;99.90;;;;;;5090723;28;20048;-77
2022/12/10 06:13:19;;;;;;;1999.90;999.90;;;3.30;99.90;;;;;;5065371;28;20052;-77
2022/12/10 06:15:45;;;;;;;1999.90;999.90;;;2.60;99.90;;;;;;5092335;28;20165;-77
2022/12/10 06:18:11;;;;;;;1999.90;999.90;;;5.10;99.90;;;;;;5064620;28;20827;-77
2022/12/10 06:20:40;;;;;;;1999.90;999.90;;;1.90;99.90;;;;;;5052323;28;20040;-77
2022/12/10 06:23:06;;;;;;;1999.90;999.90;;;4.40;99.90;;;;;;5052192;28;20470;-77
2022/12/10 06:25:32;;;;;;;1999.90;999.90;;;3.70;99.90;;;;;;5050751;28;20118;-77
2022/12/10 06:27:58;;;;;;;1999.90;999.90;;;5.10;99.90;;;;;;5051463;28;20129;-78
2022/12/10 06:30:24;;;;;;;1999.90;999.90;;;3.80;99.90;;;;;;5072462;28;20458;-78
2022/12/10 06:32:49;;;;;;;1999.90;999.90;;;3.40;99.90;;;;;;5071942;28;20036;-78
2022/12/10 06:35:15;;;;;;;1999.90;999.90;;;3.10;99.90;;;;;;5071721;28;20048;-77
2022/12/10 06:37:41;;;;;;;1999.90;999.90;;;3.50;99.90;;;;;;5057795;28;20288;-77
2022/12/10 06:40:07;;;;;;;1999.90;999.90;;;2.80;99.90;;;;;;5055057;28;20052;-77
2022/12/10 06:42:33;;;;;;;1999.90;999.90;;;3.30;99.90;;;;;;5054063;28;20110;-77
2022/12/10 06:44:58;;;;;;;1999.90;999.90;;;3.30;99.90;;;;;;5065980;28;20438;-77
2022/12/10 06:47:24;;;;;;;1999.90;999.90;;;2.60;99.90;;;;;;5060195;28;20056;-77
2022/12/10 06:49:50;;;;;;;1999.90;999.90;;;4.00;99.90;;;;;;5060437;28;20401;-77
2022/12/10 06:52:15;;;;;;;1999.90;999.90;;;5.20;99.90;;;;;;5072766;28;20101;-77
2022/12/10 06:54:41;;;;;;;1999.90;999.90;;;3.10;99.90;;;;;;5087808;28;20051;-77
2022/12/10 06:57:07;;;;;;;1999.90;999.90;;;3.70;99.90;;;;;;5091041;28;20058;-77
2022/12/10 06:59:33;;;;;;;1999.90;999.90;;;3.50;99.90;;;;;;5040235;28;20109;-77
2022/12/10 07:01:59;;;;;;;1999.90;999.90;;;;;;;;;;5071281;28;20048;-77
2022/12/10 07:04:25;;;;;;;1999.90;999.90;;;4.40;99.90;;;;;;5066936;28;20048;-77
2022/12/10 07:06:50;;;;;;;1999.90;999.90;;;3.50;99.90;;;;;;5064481;28;20051;-78
2022/12/10 07:09:16;;;;;;;1999.90;999.90;;;6.10;99.90;;;;;;5064804;28;20523;-77
2022/12/10 07:11:42;;;;;;;1999.90;999.90;;;3.00;99.90;;;;;;5061456;28;20258;-76
2022/12/10 07:14:14;;;;;;;1999.90;999.90;;;3.40;99.90;;;;;;5045580;28;20055;-76
2022/12/10 07:16:39;;;;;;;1999.90;999.90;;;4.60;99.90;;;;;;5067726;28;20036;-76
2022/12/10 07:19:05;;;;;;;1999.90;999.90;;;3.20;99.90;;;;;;5049647;28;20123;-77
2022/12/10 07:21:33;;;;;;;1999.90;999.90;;;2.40;99.90;;;;;;5066117;28;20055;-77
2022/12/10 07:24:05;;;;;;;1999.90;999.90;;;6.80;99.90;;;;;;5074287;28;20049;-77
2022/12/10 07:26:33;;;;;;;1999.90;999.90;;;3.50;99.90;;;;;;5068112;28;20037;-77
2022/12/10 07:28:59;;;;;;;1999.90;999.90;;;5.10;99.90;;;;;;5056348;28;20677;-77
2022/12/10 07:31:26;;;;;;;1999.90;999.90;;;3.40;99.90;;;;;;5080777;28;20083;-87
2022/12/10 07:33:53;;;;;;;1999.90;999.90;;;3.70;99.90;;;;;;5089363;28;20048;-76
2022/12/10 07:36:20;;;;;;;1999.90;999.90;;;2.20;99.90;;;;;;5067963;28;20109;-77
2022/12/10 07:38:46;;;;;;;1999.90;999.90;;;;;;;;;;5073952;28;20151;-79
2022/12/10 07:41:13;;;;;;;1999.90;999.90;;;4.10;99.90;;;;;;5068165;28;20067;-77
2022/12/10 07:43:41;;;;;;;1999.90;999.90;;;2.60;99.90;;;;;;5066309;28;20070;-83
2022/12/10 07:46:12;;;;;;;;;;;4.10;99.90;;;;;;5065197;28;20651;-76
2022/12/10 07:48:39;;;;;;;1999.90;999.90;;;3.60;99.90;;;;;;5080773;28;20396;-76
2022/12/10 07:51:05;;;;;;;1999.90;999.90;;;3.50;99.90;;;;;;5074773;28;20638;-77
2022/12/10 07:53:31;;;;;;;1999.90;999.90;;;2.60;99.90;;;;;;5085504;28;20400;-76
2022/12/10 07:55:57;;;;;;;1999.90;999.90;;;2.30;99.90;;;;;;5082450;28;20045;-77
2022/12/10 07:58:23;;;;;;;1999.90;999.90;;;;;;;;;;5067498;28;20124;-77
2022/12/10 08:00:49;;;;;;;1999.90;999.90;;;3.60;99.90;;;;;;5076977;28;20056;-77
2022/12/10 08:03:15;;;;;;;1999.90;999.90;;;3.70;99.90;;;;;;5060619;28;20049;-76
2022/12/10 08:05:41;;;;;;;1999.90;999.90;;;3.60;99.90;;;;;;5080214;28;20048;-77
2022/12/10 08:08:07;;;;;;;1999.90;999.90;;;4.40;99.90;;;;;;5072094;28;20048;-76
2022/12/10 08:10:37;;;;;;;1999.90;999.90;;;2.20;99.90;;;;;;5072168;28;20049;-77
2022/12/10 08:13:03;;;;;;;1999.90;999.90;;;4.60;99.90;;;;;;5075541;28;20400;-77
2022/12/10 08:15:28;;;;;;;1999.90;999.90;;;4.10;99.90;;;;;;5066167;28;20139;-77
2022/12/10 08:17:55;;;;;;;1999.90;999.90;;;3.50;99.90;;;;;;5071363;28;20164;-76
2022/12/10 08:20:22;;;;;;;1999.90;999.90;;;5.20;99.90;;;;;;5072199;28;20056;-77
2022/12/10 08:22:48;;;;;;;1999.90;999.90;;;3.70;99.90;;;;;;5050562;28;20061;-77
2022/12/10 08:25:14;;;;;;;1999.90;999.90;;;2.60;99.90;;;;;;5072830;28;20044;-77
2022/12/10 08:27:39;;;;;;;1999.90;999.90;;;3.80;99.90;;;;;;5063162;28;20045;-77
2022/12/10 08:30:05;;;;;;;1999.90;999.90;;;6.60;93.60;;;;;;5070075;28;20080;-78
2022/12/10 08:32:31;;;;;;;1999.90;999.90;;;;;;;;;;5065172;28;20482;-78
2022/12/10 08:34:57;;;;;;;1999.90;999.90;;;3.80;1.00;;;;;;5055318;28;20052;-76
2022/12/10 08:37:23;;;;;;;1999.90;999.90;;;6.20;95.60;;;;;;5065457;28;20045;-76
2022/12/10 08:39:48;;;;;;;1999.90;999.90;;;2.30;74.40;;;;;;5064198;28;20049;-76
2022/12/10 08:42:14;;;;;;;1999.90;999.90;;;6.00;31.00;;;;;;5048144;28;20044;-76
2022/12/10 08:44:40;;;;;;;1999.90;999.90;;;4.90;58.90;;;;;;5062860;28;20489;-77
2022/12/10 08:47:06;;;;;;;1999.90;999.90;;;3.10;72.60;;;;;;5081058;28;20056;-76
2022/12/10 08:49:32;;;;;;;1999.90;999.90;;;3.50;1.00;;;;;;5070823;28;20048;-77
2022/12/10 08:51:57;;;;;;;1999.90;999.90;;;2.20;1.00;;;;;;5053742;28;20428;-76
2022/12/10 08:54:23;;;;;;;1999.90;999.90;;;4.40;1.00;;;;;;5062485;28;20045;-77
2022/12/10 08:56:49;;;;;;;1999.90;999.90;;;4.40;1.00;;;;;;5085145;28;20078;-77
2022/12/10 08:59:14;;;;;;;1999.90;999.90;;;3.60;1.00;;;;;;5089461;28;20044;-79
2022/12/10 09:01:40;;;;;;;1999.90;999.90;;;4.30;1.00;;;;;;5058802;28;20171;-77
2022/12/10 09:04:06;;;;;;;1999.90;999.90;;;3.50;1.00;;;;;;5088378;28;20269;-76
2022/12/10 09:06:31;;;;;;;1999.90;999.90;;;3.60;1.00;;;;;;5089981;28;20498;-77
2022/12/10 09:08:57;;;;;;;1999.90;999.90;;;3.20;1.00;;;;;;5092641;28;20094;-77
2022/12/10 09:11:29;;;;;;;1999.90;999.90;;;5.60;1.00;;;;;;5083000;28;20090;-77
2022/12/10 09:13:55;;;;;;;1999.90;999.90;;;4.70;9.60;;;;;;5088609;28;20058;-77
2022/12/10 09:16:21;;;;;;;1999.90;999.90;;;5.80;1.00;;;;;;5093276;28;20488;-77
2022/12/10 09:18:46;;;;;;;1999.90;999.90;;;3.20;1.00;;;;;;5080174;28;20045;-76
2022/12/10 09:21:14;;;;;;;1999.90;999.90;;;3.10;1.00;;;;;;5067442;28;20147;-80
2022/12/10 09:23:41;;;;;;;1999.90;999.90;;;4.20;1.00;;;;;;5076598;28;20048;-84
2022/12/10 09:26:09;;;;;;;1999.90;999.90;;;6.00;1.00;;;;;;5093152;28;20083;-77
2022/12/10 09:28:35;;;;;;;;;;;4.50;1.00;;;;;;5071891;28;20053;-77
2022/12/10 09:31:03;;;;;;;1999.90;999.90;;;4.50;1.00;;;;;;5070714;28;19924;-76
2022/12/10 09:33:30;;;;;;;1999.90;999.90;;;5.90;1.00;;;;;;5066461;28;20044;-77
2022/12/10 09:35:56;;;;;;;1999.90;999.90;;;3.70;1.00;;;;;;5071539;28;20127;-77
2022/12/10 09:38:22;;;;;;;1999.90;999.90;;;5.60;1.00;;;;;;5071142;28;20055;-76
2022/12/10 09:41:01;;;;;;;1999.90;999.90;;;3.90;1.00;;;;;;5069014;28;20056;-76
2022/12/10 09:43:46;;;;;;;1999.90;999.90;;;2.70;1.00;;;;;;5063373;28;20041;-77
2022/12/10 09:46:54;;;;;;;1999.90;999.90;;;5.90;1.00;;;;;;5071710;28;20086;-77
2022/12/10 09:49:38;;;;;;;1999.90;999.90;;;6.10;1.00;;;;;;5053456;28;20053;-76
2022/12/10 09:52:11;;;;;;;1999.90;999.90;;;4.20;1.00;;;;;;5062045;28;20143;-84
2022/12/10 09:54:49;;;;;;;1999.90;999.90;;;4.10;1.00;;;;;;5053191;28;20045;-77
2022/12/10 09:57:23;;;;;;;1999.90;999.90;;;4.40;1.00;;;;;;5051818;28;20491;-77
2022/12/10 09:59:51;;;;;;;1999.90;999.90;;;4.10;1.00;;;;;;5070415;28;20106;-77
2022/12/10 10:02:22;;;;;;;1999.90;999.90;;;4.10;1.00;;;;;;5048779;28;20052;-76
2022/12/10 10:04:51;;;;;;;1999.90;999.90;;;4.10;1.00;;;;;;5051936;28;20071;-77
2022/12/10 10:07:30;;;;;;;1999.90;999.90;;;5.70;1.00;;;;;;5050198;28;20045;-78
2022/12/10 10:10:11;;;;;;;1999.90;999.90;;;2.40;1.00;;;;;;5068056;28;20044;-77
2022/12/10 10:12:40;;;;;;;1999.90;999.90;;;5.30;1.00;;;;;;5078209;28;20129;-77
2022/12/10 10:15:18;;;;;;;1999.90;999.90;;;6.60;1.00;;;;;;5058189;28;20056;-79
2022/12/10 10:17:46;;;;;;;1999.90;999.90;;;;;;;;;;5039487;28;20045;-78
2022/12/10 10:20:13;;;;;;;1999.90;999.90;;;3.70;1.00;;;;;;5060281;28;20105;-77
2022/12/10 10:22:40;;;;;;;1999.90;999.90;;;6.40;1.00;;;;;;5061697;28;20068;-78
2022/12/10 10:25:17;;;;;;;1999.90;999.90;;;4.30;1.00;;;;;;5061543;28;20057;-77
2022/12/10 10:27:43;;;;;;;1999.90;999.90;;;4.20;1.00;;;;;;5066752;28;20041;-77
2022/12/10 10:30:20;;;;;;;1999.90;999.90;;;4.60;1.00;;;;;;5066711;28;20508;-78
2022/12/10 10:32:52;;;;;;;1999.90;999.90;;;4.00;1.00;;;;;;5062701;28;20044;-81
2022/12/10 10:35:30;;;;;;;1999.90;999.90;;;4.40;1.00;;;;;;5063682;28;20044;-77
2022/12/10 10:38:13;;;;;;;1999.90;999.90;;;5.40;1.00;;;;;;5080491;28;20428;-77
2022/12/10 10:40:45;;;;;;;1999.90;999.90;;;5.90;1.00;;;;;;5061144;28;20095;-77
2022/12/10 10:43:19;;;;;;;1999.90;999.90;;;7.10;1.00;;;;;;5066273;28;20226;-77
2022/12/10 10:45:49;;;;;;;1999.90;999.90;;;4.40;1.00;;;;;;5063835;28;20381;-85
2022/12/10 10:48:21;;;;;;;1999.90;999.90;;;4.50;1.00;;;;;;5068193;28;20052;-78
2022/12/10 10:50:51;;;;;;;1999.90;999.90;;;4.40;1.00;;;;;;5064877;28;20106;-79
2022/12/10 10:53:30;;;;;;;1999.90;999.90;;;4.50;99.90;;;;;;5064028;28;20080;-79
2022/12/10 10:56:21;;;;;;;1999.90;999.90;;;0.70;1.00;;;;;;5065078;28;20048;-79
2022/12/10 10:58:58;;;;;;;1999.90;999.90;;;5.10;1.00;;;;;;5084601;28;20134;-79
2022/12/10 11:01:26;;;;;;;1999.90;999.90;;;4.30;1.00;;;;;;5055323;28;20080;-77
2022/12/10 11:03:59;;;;;;;1999.90;999.90;;;1.40;1.00;;;;;;5060498;28;20485;-77
2022/12/10 11:06:25;;;;;;;1999.90;999.90;;;8.30;1.00;;;;;;5089132;28;20141;-79
2022/12/10 11:08:57;;;;;;;1999.90;999.90;;;4.60;1.00;;;;;;5053182;28;20045;-77
2022/12/10 11:11:36;;;;;;;1999.90;999.90;;;4.50;1.00;;;;;;5081258;28;20058;-76
2022/12/10 11:14:23;;;;;;;1999.90;999.90;;;4.40;1.00;;;;;;5052304;28;20044;-77
2022/12/10 11:16:49;;;;;;;1999.90;999.90;;;5.90;1.00;;;;;;5059242;28;20045;-76
2022/12/10 11:19:23;;;;;;;1999.90;999.90;;;5.00;1.00;;;;;;5083248;28;20051;-76
2022/12/10 11:21:49;;;;;;;1999.90;999.90;;;;;;;;;;5075100;28;20051;-80
2022/12/10 11:24:18;;;;;;;1999.90;999.90;;;4.70;1.00;;;;;;5073522;28;20046;-76
2022/12/10 11:27:02;;;;;;;1999.90;999.90;;;6.70;1.00;;;;;;5075643;28;20044;-76
2022/12/10 11:29:51;;;;;;;1999.90;999.90;;;2.80;1.00;;;;;;5074426;28;20048;-76
2022/12/10 11:32:46;;;;;;;1999.90;999.90;;;4.80;99.90;;;;;;5072913;28;20083;-78
2022/12/10 11:35:38;;;;;;;1999.90;999.90;;;2.70;1.00;;;;;;5050600;28;20123;-76
2022/12/10 11:38:32;;;;;;;1999.90;999.90;;;3.60;1.00;;;;;;5076626;28;20041;-76
2022/12/10 11:41:25;;;;;;;1999.90;999.90;;;3.50;1.00;;;;;;5060276;28;20053;-76
2022/12/10 11:44:06;;;;;;;1999.90;999.90;;;5.00;1.00;;;;;;5075289;28;20045;-76
2022/12/10 11:46:50;;;;;;;1999.90;999.90;;;3.00;1.00;;;;;;5073128;28;20046;-76
2022/12/10 11:49:53;;;;;;;1999.90;999.90;;;2.90;1.00;;;;;;5067046;28;20044;-76
2022/12/10 11:52:58;;;;;;;1999.90;999.90;;;5.50;1.00;;;;;;5069392;28;20398;-76
2022/12/10 11:55:43;;;;;;;1999.90;999.90;;;2.80;1.00;;;;;;5051195;28;20057;-76
2022/12/10 11:58:39;;;;;;;1999.90;999.90;;;4.70;99.90;;;;;;5069943;28;20049;-75
2022/12/10 12:01:26;;;;;;;1999.90;999.90;;;3.20;99.90;;;;;;5073415;28;20404;-81
2022/12/10 12:04:01;;;;;;;1999.90;999.90;;;5.10;99.90;;;;;;5066562;28;20055;-76
2022/12/10 12:06:45;;;;;;;1999.90;999.90;;;5.60;1.00;;;;;;5074631;28;20084;-76
2022/12/10 12:09:15;;;;;;;1999.90;999.90;;;4.50;99.90;;;;;;5068271;28;20124;-79
2022/12/10 12:12:09;;;;;;;1999.90;999.90;;;5.40;99.90;;;;;;5078955;28;20052;-81
2022/12/10 12:14:51;;;;;;;1999.90;999.90;;;4.50;99.90;;;;;;5062982;28;20060;-78
2022/12/10 12:17:37;;;;;;;1999.90;999.90;;;6.90;99.90;;;;;;5080008;28;20424;-77
2022/12/10 12:20:22;;;;;;;1999.90;999.90;;;5.10;99.90;;;;;;5071104;28;20397;-79
2022/12/10 12:22:53;;;;;;;1999.90;999.90;;;4.70;99.90;;;;;;5060418;28;20093;-77
2022/12/10 12:25:39;;;;;;;1999.90;999.90;;;5.40;99.90;;;;;;5078430;28;20055;-79
2022/12/10 12:28:26;;;;;;;1999.90;999.90;;;4.60;1.00;;;;;;5062716;28;20443;-78
2022/12/10 12:31:07;;;;;;;1999.90;999.90;;;3.80;1.00;;;;;;5072775;28;20051;-77
2022/12/10 12:33:47;;;;;;;1999.90;999.90;;;4.60;1.00;;;;;;5093470;28;20052;-84
2022/12/10 12:36:22;;;;;;;1999.90;999.90;;;4.70;1.00;;;;;;5077581;28;20075;-79
2022/12/10 12:39:16;;;;;;;1999.90;999.90;;;4.60;1.00;;;;;;5052672;28;20040;-78
2022/12/10 12:41:47;;;;;;;1999.90;999.90;;;4.80;1.00;;;;;;5082589;28;20082;-78
2022/12/10 12:44:29;;;;;;;1999.90;999.90;;;5.30;1.00;;;;;;5068765;28;20127;-80
2022/12/10 12:46:56;;;;;;;1999.90;999.90;;;;;;;;;;5065716;28;20062;-78